createdAt,value
2022-09-05T00:01:45.717Z,26.70
2022-09-05T00:04:35.065Z,26.80
2022-09-05T00:07:07.055Z,26.80
2022-09-05T00:09:38.742Z,26.90
2022-09-05T00:12:08.298Z,26.90
2022-09-05T00:15:14.893Z,26.80
2022-09-05T00:18:56.497Z,26.80
2022-09-05T00:24:31.664Z,26.80
2022-09-05T00:24:35.329Z,26.80
2022-09-05T00:26:50.215Z,26.80
2022-09-05T00:31:05.950Z,26.80
2022-09-05T00:32:54.381Z,26.80
2022-09-05T00:35:41.632Z,26.80
2022-09-05T00:38:19.646Z,26.80
2022-09-05T00:40:52.019Z,26.80
2022-09-05T00:43:35.229Z,26.80
2022-09-05T00:46:09.016Z,26.70
2022-09-05T00:48:56.532Z,26.70
2022-09-05T00:51:51.583Z,26.80
2022-09-05T00:54:41.259Z,26.80
2022-09-05T00:57:30.496Z,26.80
2022-09-05T01:00:13.716Z,26.80
2022-09-05T01:03:13.101Z,26.80
2022-09-05T01:05:51.000Z,26.90
2022-09-05T01:08:34.803Z,26.90
2022-09-05T01:11:09.854Z,26.90
2022-09-05T01:13:53.776Z,26.90
2022-09-05T01:16:32.339Z,26.90
2022-09-05T01:19:04.046Z,26.90
2022-09-05T01:21:38.924Z,26.90
2022-09-05T01:24:07.727Z,26.90
2022-09-05T01:26:54.985Z,26.90
2022-09-05T01:29:29.454Z,26.90
2022-09-05T01:32:19.767Z,26.90
2022-09-05T01:35:04.138Z,26.90
2022-09-05T01:37:34.266Z,26.80
2022-09-05T01:40:27.082Z,26.80
2022-09-05T01:43:19.444Z,26.80
2022-09-05T01:45:52.308Z,26.80
2022-09-05T01:48:47.468Z,26.90
2022-09-05T01:51:31.502Z,26.90
2022-09-05T01:54:00.956Z,26.80
2022-09-05T01:56:35.844Z,26.90
2022-09-05T01:59:22.951Z,26.90
2022-09-05T02:02:01.098Z,26.90
2022-09-05T02:04:48.176Z,26.90
2022-09-05T02:07:30.253Z,26.90
2022-09-05T02:10:07.242Z,27.00
2022-09-05T02:12:42.605Z,27.00
2022-09-05T02:15:18.807Z,26.90
2022-09-05T02:17:53.477Z,27.00
2022-09-05T02:20:36.416Z,27.00
2022-09-05T02:23:40.689Z,27.00
2022-09-05T02:26:06.422Z,27.00
2022-09-05T02:28:42.382Z,27.00
2022-09-05T02:31:22.863Z,27.10
2022-09-05T02:34:01.713Z,27.10
2022-09-05T02:36:44.206Z,27.20
2022-09-05T02:45:03.804Z,27.20
2022-09-05T02:45:11.755Z,27.30
2022-09-05T02:45:38.616Z,27.30
2022-09-05T02:48:15.544Z,27.40
2022-09-05T02:57:07.821Z,27.40
2022-09-05T02:57:33.269Z,27.50
2022-09-05T02:57:43.274Z,27.40
2022-09-05T02:59:49.899Z,27.50
2022-09-05T03:02:29.117Z,27.50
2022-09-05T03:05:07.021Z,27.50
2022-09-05T03:07:45.333Z,27.50
2022-09-05T03:10:53.660Z,27.50
2022-09-05T03:13:24.202Z,27.60
2022-09-05T03:15:56.171Z,27.60
2022-09-05T03:18:28.099Z,27.60
2022-09-05T03:21:16.236Z,27.60
2022-09-05T03:23:57.469Z,27.60
2022-09-05T03:26:44.920Z,27.60
2022-09-05T03:29:33.545Z,27.60
2022-09-05T03:32:20.939Z,27.60
2022-09-05T03:34:55.827Z,27.60
2022-09-05T03:37:36.685Z,27.70
2022-09-05T03:40:21.695Z,27.70
2022-09-05T03:43:05.183Z,27.70
2022-09-05T03:45:47.448Z,27.70
2022-09-05T03:48:34.613Z,27.70
2022-09-05T03:57:13.049Z,27.70
2022-09-05T03:57:13.566Z,27.70
2022-09-05T03:57:15.713Z,27.70
2022-09-05T03:59:51.364Z,27.70
2022-09-05T04:08:06.612Z,27.80
2022-09-05T04:08:13.809Z,27.80
2022-09-05T04:08:33.057Z,27.80
2022-09-05T04:11:09.164Z,27.80
2022-09-05T04:13:38.623Z,27.80
2022-09-05T04:16:07.529Z,27.80
2022-09-05T04:18:43.084Z,27.80
2022-09-05T04:21:18.284Z,27.90
2022-09-05T04:24:05.520Z,27.90
2022-09-05T04:26:37.594Z,27.90
2022-09-05T04:29:06.354Z,28.00
2022-09-05T04:31:41.423Z,28.00
2022-09-05T04:34:28.788Z,28.00
2022-09-05T04:37:08.619Z,28.00
2022-09-05T04:39:38.509Z,28.00
2022-09-05T04:42:07.418Z,28.10
2022-09-05T04:44:47.772Z,28.10
2022-09-05T04:47:20.789Z,28.10
2022-09-05T04:49:59.491Z,28.20
2022-09-05T04:52:38.521Z,28.20
2022-09-05T04:55:12.824Z,28.20
2022-09-05T04:57:41.808Z,28.20
2022-09-05T05:05:58.655Z,28.20
2022-09-05T05:06:16.907Z,28.20
2022-09-05T05:06:46.935Z,28.20
2022-09-05T05:09:21.332Z,28.20
2022-09-05T05:17:58.968Z,28.10
2022-09-05T05:18:12.194Z,28.10
2022-09-05T05:18:36.518Z,28.20
2022-09-05T05:20:57.900Z,28.10
2022-09-05T05:23:41.340Z,28.20
2022-09-05T05:26:12.714Z,28.20
2022-09-05T05:29:04.534Z,28.30
2022-09-05T05:31:35.851Z,28.30
2022-09-05T05:34:09.753Z,28.30
2022-09-05T05:37:18.351Z,28.40
2022-09-05T05:39:53.961Z,28.40
2022-09-05T05:42:25.599Z,28.50
2022-09-05T05:44:59.286Z,28.50
2022-09-05T05:47:40.016Z,28.70
2022-09-05T05:50:21.263Z,28.70
2022-09-05T05:53:02.045Z,28.80
2022-09-05T05:55:52.329Z,28.90
2022-09-05T05:58:32.646Z,29.00
2022-09-05T06:01:35.320Z,29.10
2022-09-05T06:04:09.688Z,29.20
2022-09-05T06:06:51.331Z,29.20
2022-09-05T06:14:01.174Z,29.20
2022-09-05T06:15:04.095Z,29.20
2022-09-05T06:15:12.121Z,29.20
2022-09-05T06:17:55.117Z,29.20
2022-09-05T06:21:54.563Z,29.20
2022-09-05T06:23:36.735Z,29.20
2022-09-05T06:26:30.975Z,29.10
2022-09-05T06:29:33.932Z,29.10
2022-09-05T06:32:26.608Z,29.10
2022-09-05T06:35:00.048Z,29.10
2022-09-05T06:37:43.113Z,29.10
2022-09-05T06:40:15.102Z,29.10
2022-09-05T06:43:03.352Z,29.10
2022-09-05T06:45:58.542Z,29.20
2022-09-05T06:48:45.553Z,29.30
2022-09-05T06:51:22.178Z,29.30
2022-09-05T06:54:05.201Z,29.40
2022-09-05T06:56:34.002Z,29.40
2022-09-05T06:59:21.135Z,29.50
2022-09-05T07:02:01.236Z,29.50
2022-09-05T07:05:37.747Z,29.50
2022-09-05T07:07:24.268Z,29.60
2022-09-05T07:10:03.825Z,29.60
2022-09-05T07:12:41.264Z,29.60
2022-09-05T07:15:13.393Z,29.60
2022-09-05T07:18:16.531Z,29.60
2022-09-05T07:21:17.136Z,29.60
2022-09-05T07:24:06.048Z,29.50
2022-09-05T07:26:54.152Z,29.50
2022-09-05T07:29:52.500Z,29.50
2022-09-05T07:32:31.335Z,29.50
2022-09-05T07:35:03.175Z,29.50
2022-09-05T07:37:37.816Z,29.50
2022-09-05T07:40:25.290Z,29.50
2022-09-05T07:43:09.840Z,29.40
2022-09-05T07:45:52.322Z,29.40
2022-09-05T07:48:35.326Z,29.40
2022-09-05T07:56:46.686Z,29.30
2022-09-05T07:56:58.898Z,29.40
2022-09-05T07:57:26.979Z,29.30
2022-09-05T07:59:42.760Z,29.30
2022-09-05T08:02:15.360Z,29.30
2022-09-05T08:04:44.643Z,29.30
2022-09-05T08:07:47.271Z,29.30
2022-09-05T08:10:09.872Z,29.30
2022-09-05T08:13:22.597Z,29.20
2022-09-05T08:15:39.700Z,29.20
2022-09-05T08:18:42.813Z,29.20
2022-09-05T08:21:27.656Z,29.10
2022-09-05T08:24:00.434Z,29.00
2022-09-05T08:26:49.678Z,28.90
2022-09-05T08:29:36.971Z,28.80
2022-09-05T08:32:11.228Z,28.70
2022-09-05T08:34:45.580Z,28.70
2022-09-05T08:37:21.576Z,28.60
2022-09-05T08:40:02.439Z,28.50
2022-09-05T08:45:58.584Z,28.50
2022-09-05T08:46:42.698Z,28.40
2022-09-05T08:50:08.060Z,28.40
2022-09-05T08:52:00.997Z,28.30
2022-09-05T08:55:04.075Z,28.30
2022-09-05T08:57:47.636Z,28.20
2022-09-05T09:00:19.159Z,28.20
2022-09-05T09:03:06.295Z,28.20
2022-09-05T09:06:12.104Z,28.20
2022-09-05T09:08:45.741Z,28.10
2022-09-05T09:11:21.450Z,28.10
2022-09-05T09:14:08.729Z,28.10
2022-09-05T09:16:46.842Z,28.10
2022-09-05T09:19:34.557Z,28.10
2022-09-05T09:22:15.569Z,28.10
2022-09-05T09:25:14.450Z,28.10
2022-09-05T09:28:48.343Z,28.20
2022-09-05T09:31:00.695Z,28.10
2022-09-05T09:33:41.713Z,28.20
2022-09-05T09:36:28.731Z,28.20
2022-09-05T09:39:38.384Z,28.20
2022-09-05T09:42:32.288Z,28.30
2022-09-05T09:45:27.722Z,28.30
2022-09-05T09:48:05.218Z,28.30
2022-09-05T09:50:36.551Z,28.30
2022-09-05T09:53:30.655Z,28.40
2022-09-05T09:56:07.060Z,28.40
2022-09-05T09:58:52.197Z,28.40
2022-09-05T10:01:36.722Z,28.40
2022-09-05T10:10:35.841Z,28.40
2022-09-05T10:10:48.123Z,28.40
2022-09-05T10:11:18.774Z,28.40
2022-09-05T10:13:17.925Z,28.40
2022-09-05T10:15:59.579Z,28.30
2022-09-05T10:18:43.736Z,28.30
2022-09-05T10:21:31.009Z,28.20
2022-09-05T10:23:59.825Z,28.20
2022-09-05T10:26:53.001Z,28.20
2022-09-05T10:29:40.495Z,28.10
2022-09-05T10:34:39.441Z,28.10
2022-09-05T10:35:22.142Z,28.00
2022-09-05T10:38:10.306Z,28.00
2022-09-05T10:41:20.828Z,27.90
2022-09-05T10:43:30.985Z,27.90
2022-09-05T10:46:02.315Z,27.80
2022-09-05T10:48:53.249Z,27.80
2022-09-05T10:51:41.948Z,27.70
2022-09-05T10:54:28.449Z,27.60
2022-09-05T10:57:06.190Z,27.50
2022-09-05T11:02:24.157Z,27.50
2022-09-05T11:02:46.766Z,27.40
2022-09-05T11:05:18.804Z,27.30
2022-09-05T11:08:06.693Z,27.20
2022-09-05T11:10:53.700Z,27.10
2022-09-05T11:13:40.964Z,27.00
2022-09-05T11:16:13.424Z,27.00
2022-09-05T11:18:56.408Z,26.80
2022-09-05T11:21:25.965Z,26.90
2022-09-05T11:23:57.696Z,26.80
2022-09-05T11:26:26.752Z,26.80
2022-09-05T11:29:00.309Z,26.90
2022-09-05T11:32:31.729Z,26.80
2022-09-05T11:39:48.595Z,26.80
2022-09-05T11:40:07.455Z,26.80
2022-09-05T11:40:51.123Z,26.70
2022-09-05T11:43:41.295Z,26.60
2022-09-05T11:46:16.227Z,26.50
2022-09-05T11:49:03.538Z,26.50
2022-09-05T11:51:47.650Z,26.40
2022-09-05T11:54:35.211Z,26.30
2022-09-05T11:57:33.593Z,26.30
2022-09-05T12:00:33.391Z,26.20
2022-09-05T12:03:08.610Z,26.10
2022-09-05T12:05:58.977Z,26.10
2022-09-05T12:08:46.192Z,26.00
2022-09-05T12:11:29.963Z,25.90
2022-09-05T12:14:20.931Z,25.90
2022-09-05T12:17:10.353Z,26.00
2022-09-05T12:19:52.061Z,26.00
2022-09-05T12:22:30.822Z,26.00
2022-09-05T12:25:27.563Z,26.10
2022-09-05T12:28:39.103Z,26.10
2022-09-05T12:31:29.652Z,26.10
2022-09-05T12:36:07.147Z,26.10
2022-09-05T12:39:52.023Z,26.10
2022-09-05T12:41:35.912Z,26.00
2022-09-05T12:42:45.728Z,26.00
2022-09-05T12:45:37.241Z,25.90
2022-09-05T12:48:12.628Z,25.90
2022-09-05T12:50:53.971Z,26.00
2022-09-05T12:53:23.351Z,26.10
2022-09-05T12:56:51.356Z,26.10
2022-09-05T13:02:56.316Z,26.20
2022-09-05T13:03:13.988Z,26.20
2022-09-05T13:04:32.878Z,26.20
2022-09-05T13:07:06.910Z,26.20
2022-09-05T13:12:07.440Z,26.20
2022-09-05T13:14:59.080Z,26.20
2022-09-05T13:15:28.686Z,26.20
2022-09-05T13:18:00.835Z,26.20
2022-09-05T13:20:37.763Z,26.30
2022-09-05T13:23:24.720Z,26.30
2022-09-05T13:25:59.692Z,26.30
2022-09-05T13:28:36.649Z,26.30
2022-09-05T13:38:05.803Z,26.30
2022-09-05T13:38:11.605Z,26.40
2022-09-05T13:38:30.547Z,26.40
2022-09-05T13:39:49.613Z,26.40
2022-09-05T13:42:20.980Z,26.40
2022-09-05T13:44:52.808Z,26.40
2022-09-05T13:47:39.845Z,26.40
2022-09-05T13:50:18.680Z,26.30
2022-09-05T13:52:51.503Z,26.30
2022-09-05T13:55:26.476Z,26.30
2022-09-05T13:57:58.245Z,26.30
2022-09-05T14:00:41.755Z,26.30
2022-09-05T14:03:31.493Z,26.30
2022-09-05T14:06:09.976Z,26.30
2022-09-05T14:12:04.425Z,26.30
2022-09-05T14:20:29.327Z,26.50
2022-09-05T14:23:08.581Z,26.50
2022-09-05T14:25:39.732Z,26.50
2022-09-05T14:28:20.535Z,26.50
2022-09-05T14:35:00.770Z,26.50
2022-09-05T14:37:44.462Z,26.40
2022-09-05T14:37:55.227Z,26.50
2022-09-05T14:39:29.600Z,26.40
2022-09-05T14:42:09.961Z,26.40
2022-09-05T14:44:57.242Z,26.50
2022-09-05T14:47:47.656Z,26.50
2022-09-05T14:50:21.243Z,26.50
2022-09-05T14:55:55.043Z,26.50
2022-09-05T15:02:39.425Z,26.60
2022-09-05T15:02:52.911Z,26.60
2022-09-05T15:04:41.054Z,26.60
2022-09-05T15:07:15.789Z,26.60
2022-09-05T15:12:15.503Z,26.60
2022-09-05T15:12:45.465Z,26.70
2022-09-05T15:15:26.928Z,26.70
2022-09-05T15:17:58.907Z,26.70
2022-09-05T15:20:30.476Z,26.70
2022-09-05T15:22:59.156Z,26.70
2022-09-05T15:25:48.215Z,26.70
2022-09-05T15:28:21.982Z,26.70
2022-09-05T15:30:58.810Z,26.70
2022-09-05T15:33:29.515Z,26.70
2022-09-05T15:35:59.681Z,26.70
2022-09-05T15:38:30.504Z,26.70
2022-09-05T15:41:08.922Z,26.70
2022-09-05T15:43:52.577Z,26.60
2022-09-05T15:46:29.488Z,26.60
2022-09-05T15:49:03.076Z,26.60
2022-09-05T15:51:38.083Z,26.60
2022-09-05T15:54:06.915Z,26.60
2022-09-05T15:56:48.108Z,26.70
2022-09-05T15:59:17.587Z,26.70
2022-09-05T16:01:59.058Z,26.70
2022-09-05T16:06:36.354Z,26.60
2022-09-05T16:10:37.466Z,26.60
2022-09-05T16:10:43.755Z,26.70
2022-09-05T16:13:00.351Z,26.60
2022-09-05T16:17:06.250Z,26.60
2022-09-05T16:23:25.663Z,26.60
2022-09-05T16:23:33.605Z,26.60
2022-09-05T16:24:58.230Z,26.60
2022-09-05T16:27:16.958Z,26.70
2022-09-05T16:29:49.112Z,26.70
2022-09-05T16:32:25.354Z,26.60
2022-09-05T16:34:58.702Z,26.60
2022-09-05T16:37:32.454Z,26.60
2022-09-05T16:40:07.075Z,26.60
2022-09-05T16:42:45.866Z,26.50
2022-09-05T16:45:34.013Z,26.50
2022-09-05T16:48:21.048Z,26.50
2022-09-05T16:50:54.121Z,26.60
2022-09-05T16:53:31.027Z,26.60
2022-09-05T16:56:00.804Z,26.60
2022-09-05T16:58:37.127Z,26.60
2022-09-05T17:01:11.670Z,26.50
2022-09-05T17:03:46.105Z,26.50
2022-09-05T17:06:26.179Z,26.60
2022-09-05T17:09:03.216Z,26.50
2022-09-05T17:11:54.582Z,26.50
2022-09-05T17:14:34.237Z,26.50
2022-09-05T17:17:19.632Z,26.50
2022-09-05T17:20:07.129Z,26.60
2022-09-05T17:25:11.118Z,26.50
2022-09-05T17:29:32.366Z,26.50
2022-09-05T17:29:37.956Z,26.40
2022-09-05T17:31:54.519Z,26.40
2022-09-05T17:34:40.257Z,26.40
2022-09-05T17:37:20.783Z,26.30
2022-09-05T17:39:56.770Z,26.30
2022-09-05T17:42:32.807Z,26.40
2022-09-05T17:45:19.223Z,26.40
2022-09-05T17:47:53.146Z,26.40
2022-09-05T17:50:28.187Z,26.50
2022-09-05T17:53:26.131Z,26.50
2022-09-05T17:55:56.424Z,26.50
2022-09-05T17:58:49.388Z,26.50
2022-09-05T18:01:19.101Z,26.50
2022-09-05T18:03:48.152Z,26.60
2022-09-05T18:06:16.753Z,26.60
2022-09-05T18:08:49.352Z,26.50
2022-09-05T18:11:25.392Z,26.50
2022-09-05T18:13:55.207Z,26.50
2022-09-05T18:16:48.343Z,26.50
2022-09-05T18:19:44.291Z,26.50
2022-09-05T18:22:13.373Z,26.40
2022-09-05T18:24:48.609Z,26.40
2022-09-05T18:27:44.035Z,26.40
2022-09-05T18:30:11.654Z,26.30
2022-09-05T18:32:40.575Z,26.30
2022-09-05T18:35:29.275Z,26.30
2022-09-05T18:38:06.236Z,26.30
2022-09-05T18:40:40.520Z,26.20
2022-09-05T18:43:14.629Z,26.20
2022-09-05T18:45:52.951Z,26.30
2022-09-05T18:48:26.538Z,26.30
2022-09-05T18:51:13.337Z,26.40
2022-09-05T18:53:47.396Z,26.40
2022-09-05T18:56:39.417Z,26.40
2022-09-05T18:59:24.466Z,26.40
2022-09-05T19:01:56.028Z,26.40
2022-09-05T19:04:39.067Z,26.30
2022-09-05T19:07:28.809Z,26.40
2022-09-05T19:10:00.791Z,26.40
2022-09-05T19:12:53.320Z,26.40
2022-09-05T19:15:27.423Z,26.40
2022-09-05T19:18:25.898Z,26.40
2022-09-05T19:20:49.739Z,26.30
2022-09-05T19:23:27.572Z,26.40
2022-09-05T19:26:08.261Z,26.40
2022-09-05T19:36:45.641Z,26.40
2022-09-05T19:36:49.415Z,26.50
2022-09-05T19:36:55.340Z,26.40
2022-09-05T19:37:27.480Z,26.50
2022-09-05T19:44:04.648Z,26.60
2022-09-05T19:47:42.609Z,26.60
2022-09-05T19:47:51.106Z,26.60
2022-09-05T19:48:35.610Z,26.60
2022-09-05T19:51:17.491Z,26.60
2022-09-05T19:53:59.673Z,26.60
2022-09-05T19:56:37.508Z,26.60
2022-09-05T19:59:24.416Z,26.70
2022-09-05T20:01:54.594Z,26.70
2022-09-05T20:04:23.717Z,26.60
2022-09-05T20:06:52.640Z,26.60
2022-09-05T20:09:21.535Z,26.60
2022-09-05T20:11:51.946Z,26.60
2022-09-05T20:14:22.255Z,26.60
2022-09-05T20:16:51.471Z,26.60
2022-09-05T20:19:28.809Z,26.50
2022-09-05T20:22:12.763Z,26.50
2022-09-05T20:24:51.411Z,26.40
2022-09-05T20:27:27.065Z,26.50
2022-09-05T20:30:00.422Z,26.40
2022-09-05T20:32:39.648Z,26.40
2022-09-05T20:39:08.656Z,26.40
2022-09-05T20:43:20.804Z,26.50
2022-09-05T20:43:28.334Z,26.50
2022-09-05T20:43:53.554Z,26.50
2022-09-05T20:50:30.716Z,26.50
2022-09-05T20:54:05.155Z,26.50
2022-09-05T20:54:14.520Z,26.60
2022-09-05T20:55:38.293Z,26.60
2022-09-05T20:57:51.604Z,26.60
2022-09-05T21:00:24.507Z,26.60
2022-09-05T21:02:59.843Z,26.60
2022-09-05T21:05:31.188Z,26.60
2022-09-05T21:08:20.941Z,26.60
2022-09-05T21:10:59.601Z,26.60
2022-09-05T21:13:30.651Z,26.50
2022-09-05T21:16:00.222Z,26.50
2022-09-05T21:18:34.209Z,26.50
2022-09-05T21:21:13.252Z,26.50
2022-09-05T21:24:17.344Z,26.50
2022-09-05T21:26:51.449Z,26.50
2022-09-05T21:29:33.350Z,26.50
2022-09-05T21:32:04.022Z,26.50
2022-09-05T21:34:45.029Z,26.40
2022-09-05T21:37:16.016Z,26.40
2022-09-05T21:40:00.137Z,26.40
2022-09-05T21:47:38.087Z,26.30
2022-09-05T21:47:38.390Z,26.30
2022-09-05T21:48:10.694Z,26.30
2022-09-05T21:50:43.249Z,26.20
2022-09-05T21:54:22.430Z,26.20
2022-09-05T21:59:19.320Z,26.20
2022-09-05T21:59:32.589Z,26.20
2022-09-05T22:01:52.229Z,26.20
2022-09-05T22:04:22.870Z,26.20
2022-09-05T22:06:54.199Z,26.30
2022-09-05T22:09:23.956Z,26.30
2022-09-05T22:11:52.785Z,26.20
2022-09-05T22:14:22.637Z,26.20
2022-09-05T22:16:53.110Z,26.20
2022-09-05T22:19:36.897Z,26.20
2022-09-05T22:22:17.175Z,26.20
2022-09-05T22:24:52.631Z,26.30
2022-09-05T22:27:22.186Z,26.30
2022-09-05T22:29:51.207Z,26.30
2022-09-05T22:32:28.569Z,26.30
2022-09-05T22:35:27.357Z,26.30
2022-09-05T22:38:01.316Z,26.30
2022-09-05T22:40:33.138Z,26.30
2022-09-05T22:43:03.328Z,26.30
2022-09-05T22:45:33.358Z,26.30
2022-09-05T22:48:07.659Z,26.20
2022-09-05T22:50:36.673Z,26.20
2022-09-05T22:53:08.340Z,26.20
2022-09-05T22:55:39.968Z,26.20
2022-09-05T22:58:09.926Z,26.20
2022-09-05T23:00:39.355Z,26.20
2022-09-05T23:03:09.003Z,26.20
2022-09-05T23:05:38.732Z,26.20
2022-09-05T23:08:09.675Z,26.20
2022-09-05T23:10:39.275Z,26.20
2022-09-05T23:13:09.355Z,26.20
2022-09-05T23:15:38.757Z,26.20
2022-09-05T23:18:07.852Z,26.20
2022-09-05T23:20:36.883Z,26.20
2022-09-05T23:23:07.299Z,26.10
2022-09-05T23:25:36.967Z,26.10
2022-09-05T23:28:11.701Z,26.10
2022-09-05T23:30:41.605Z,26.10
2022-09-05T23:33:11.303Z,26.10
2022-09-05T23:35:40.199Z,26.20
2022-09-05T23:38:12.948Z,26.20
2022-09-05T23:40:41.926Z,26.20
2022-09-05T23:43:10.840Z,26.20
2022-09-05T23:45:39.772Z,26.10
2022-09-05T23:48:08.648Z,26.20
2022-09-05T23:50:37.546Z,26.20
2022-09-05T23:53:06.488Z,26.20
2022-09-05T23:55:35.353Z,26.20
2022-09-05T23:58:04.281Z,26.20
